DJ3LE Schleswig DE current weather conditions

sailwx.info

Wind from 112 at 1 knots gusting 5

Air temperature 27.8° C
Dewpoint 17.0° C

Last reported at 2020-Aug-14 15:17 UTC.
Time now 2020-Aug-14 16:17 UTC

Location: N 54°33' E 009°20'.
View on Google Maps.

See reports from other nearby stations

  
Tides and Currents Weather Stations Pressure Air Temp Water Temp Dewpoint Dewpoint Depression Visibility Wind Speed Wind Dir Waves Ship Positions
date/time (UTC)wind fromknots sea level pressurealtimeterstation pressurevisibilityair tempwater tempwave heightnotes
2020-Aug-14 15:17 112 1 gusting 5 27.8
2020-Aug-14 14:02 135 1 gusting 6 27.2
2020-Aug-14 12:32 112 3 gusting 6 26.1
2020-Aug-14 11:47 112 1 gusting 6 25.0
2020-Aug-14 10:32 112 2 gusting 6 23.3
2020-Aug-14 10:17 022 1 gusting 3 23.3
2020-Aug-14 09:02 112 2 gusting 6 22.8
2020-Aug-14 08:32 090 2 gusting 7 21.7
2020-Aug-14 08:02 090 2 gusting 9 21.7
2020-Aug-14 07:32 090 2 gusting 6 20.6
2020-Aug-14 06:17 112 0 gusting 3 17.8
2020-Aug-14 06:02 112 0 gusting 4 17.2
2020-Aug-14 05:02 067 15.0
2020-Aug-14 04:47 067 14.4
2020-Aug-14 04:02 067 0 gusting 1 14.4
2020-Aug-14 02:47 13.3
2020-Aug-14 00:47 13.3
2020-Aug-13 23:17 13.9
2020-Aug-13 21:17 15.6
2020-Aug-13 21:02 15.6
2020-Aug-13 20:17 17.2
2020-Aug-13 19:02 112 0 gusting 1 20.0
2020-Aug-13 18:02 135 22.8
2020-Aug-13 17:32 112 0 gusting 3 23.9
2020-Aug-13 13:47 112 4 gusting 11 26.7
2020-Aug-13 07:17 112 1 gusting 6 21.7
2020-Aug-13 04:32 112 1 gusting 4 15.6
2020-Aug-13 04:02 112 0 gusting 2 15.0
2020-Aug-13 03:17 15.0